createdAt,value
2018-12-29T00:03:40.067Z,90.70
2018-12-29T00:08:44.540Z,90.80
2018-12-29T00:13:55.928Z,90.77
2018-12-29T00:19:00.179Z,90.61
2018-12-29T00:24:07.141Z,90.77
2018-12-29T00:29:11.487Z,90.86
2018-12-29T00:34:16.185Z,90.81
2018-12-29T00:39:20.510Z,91.04
2018-12-29T00:44:24.755Z,91.28
2018-12-29T00:49:48.159Z,90.25
2018-12-29T00:54:52.405Z,91.31
2018-12-29T00:59:56.784Z,90.43
2018-12-29T01:05:01.383Z,90.82
2018-12-29T01:15:30.349Z,91.23
2018-12-29T01:20:53.672Z,90.65
2018-12-29T01:25:57.923Z,91.25
2018-12-29T01:31:21.230Z,91.42
2018-12-29T01:36:25.833Z,91.33
2018-12-29T01:41:49.163Z,90.69
2018-12-29T01:46:53.575Z,91.27
2018-12-29T01:52:16.910Z,91.25
2018-12-29T01:57:40.222Z,91.27
2018-12-29T02:03:03.579Z,91.15
2018-12-29T02:08:26.919Z,90.64
2018-12-29T02:13:43.819Z,90.30
2018-12-29T02:18:48.292Z,90.12
2018-12-29T02:24:11.699Z,90.83
2018-12-29T02:29:16.024Z,90.55
2018-12-29T02:34:20.300Z,90.98
2018-12-29T02:39:24.938Z,90.92
2018-12-29T02:44:48.530Z,91.09
2018-12-29T02:49:53.938Z,91.43
2018-12-29T02:55:17.557Z,91.51
2018-12-29T03:00:40.990Z,91.45
2018-12-29T03:05:45.221Z,92.12
2018-12-29T03:11:09.274Z,92.48
2018-12-29T03:16:27.988Z,92.08
2018-12-29T03:21:32.226Z,91.89
2018-12-29T03:26:36.732Z,91.76
2018-12-29T03:31:41.077Z,92.41
2018-12-29T03:36:45.346Z,91.85
2018-12-29T03:41:49.779Z,92.27
2018-12-29T03:46:54.403Z,92.16
2018-12-29T03:51:58.922Z,92.00
2018-12-29T03:57:03.183Z,92.25
2018-12-29T04:02:07.440Z,91.88
2018-12-29T04:07:30.757Z,91.86
2018-12-29T04:12:37.551Z,91.92
2018-12-29T04:17:42.114Z,91.89
2018-12-29T04:22:46.376Z,92.11
2018-12-29T04:27:50.652Z,92.04
2018-12-29T04:32:54.909Z,92.15
2018-12-29T04:37:59.153Z,92.46
2018-12-29T04:43:03.561Z,92.85
2018-12-29T04:48:07.822Z,92.51
2018-12-29T04:53:12.101Z,93.04
2018-12-29T04:58:16.810Z,93.30
2018-12-29T05:03:21.063Z,93.47
2018-12-29T05:08:25.576Z,93.63
2018-12-29T05:13:29.834Z,93.56
2018-12-29T05:18:34.311Z,93.33
2018-12-29T05:23:38.551Z,93.24
2018-12-29T05:28:42.796Z,93.44
2018-12-29T05:34:06.116Z,93.72
2018-12-29T05:39:10.739Z,93.36
2018-12-29T05:44:15.258Z,93.58
2018-12-29T05:49:19.739Z,93.58
2018-12-29T05:54:24.070Z,93.82
2018-12-29T05:59:28.794Z,93.89
2018-12-29T06:04:33.291Z,94.07
2018-12-29T06:09:37.913Z,94.01
2018-12-29T06:15:01.363Z,94.02
2018-12-29T06:20:05.879Z,93.92
2018-12-29T06:25:10.319Z,93.40
2018-12-29T06:30:14.570Z,93.21
2018-12-29T06:35:38.167Z,93.06
2018-12-29T06:40:42.489Z,93.23
2018-12-29T06:45:46.866Z,93.31
2018-12-29T06:50:51.100Z,93.45
2018-12-29T06:56:14.498Z,92.94
2018-12-29T07:01:18.898Z,93.63
2018-12-29T07:06:23.235Z,93.54
2018-12-29T07:11:27.843Z,93.54
2018-12-29T07:16:32.192Z,93.31
2018-12-29T07:21:36.582Z,93.19
2018-12-29T07:26:40.898Z,93.04
2018-12-29T07:31:45.166Z,93.27
2018-12-29T07:36:49.416Z,93.31
2018-12-29T07:41:53.680Z,93.24
2018-12-29T07:46:58.024Z,93.42
2018-12-29T07:52:02.276Z,93.44
2018-12-29T07:57:06.830Z,93.46
2018-12-29T08:02:30.155Z,93.38
2018-12-29T08:07:34.398Z,93.71
2018-12-29T08:12:57.736Z,93.24
2018-12-29T08:18:01.980Z,93.40
2018-12-29T08:33:48.768Z,94.16
2018-12-29T08:38:53.026Z,94.11
2018-12-29T08:44:16.359Z,94.44
2018-12-29T08:49:20.616Z,94.48
2018-12-29T08:54:43.942Z,94.51
2018-12-29T08:59:48.211Z,94.40
2018-12-29T09:04:52.559Z,94.31
2018-12-29T09:09:56.814Z,94.17
2018-12-29T09:15:01.145Z,94.06
2018-12-29T09:20:05.959Z,94.02
2018-12-29T09:25:10.234Z,94.33
2018-12-29T09:30:14.492Z,94.76
2018-12-29T09:35:37.811Z,93.93
2018-12-29T09:40:42.142Z,94.32
2018-12-29T09:46:05.484Z,94.06
2018-12-29T09:51:09.824Z,93.73
2018-12-29T09:56:14.251Z,93.77
2018-12-29T10:01:18.506Z,94.06
2018-12-29T10:06:22.761Z,94.25
2018-12-29T10:11:27.165Z,94.25
2018-12-29T10:16:50.475Z,94.36
2018-12-29T10:21:54.918Z,94.44
2018-12-29T10:26:59.214Z,94.68
2018-12-29T10:32:03.473Z,94.41
2018-12-29T10:37:26.787Z,93.80
2018-12-29T10:42:31.129Z,93.84
2018-12-29T10:47:35.441Z,93.39
2018-12-29T10:52:39.874Z,93.03
2018-12-29T10:57:44.297Z,92.69
2018-12-29T11:02:48.567Z,92.51
2018-12-29T11:07:52.945Z,92.68
2018-12-29T11:12:57.267Z,92.54
2018-12-29T11:18:01.730Z,92.54
2018-12-29T11:23:06.063Z,92.70
2018-12-29T11:28:10.431Z,93.28
2018-12-29T11:33:15.123Z,92.50
2018-12-29T11:38:19.373Z,91.70
2018-12-29T11:43:24.046Z,91.70
2018-12-29T11:48:28.426Z,91.49
2018-12-29T11:53:32.680Z,90.90
2018-12-29T11:58:56.005Z,91.15
2018-12-29T12:04:00.667Z,91.33
2018-12-29T12:09:25.405Z,91.21
2018-12-29T12:14:29.658Z,90.10
2018-12-29T12:19:34.003Z,90.68
2018-12-29T12:24:38.366Z,90.73
2018-12-29T12:29:42.859Z,90.79
2018-12-29T12:34:47.294Z,90.62
2018-12-29T12:39:51.782Z,90.57
2018-12-29T12:44:56.382Z,90.74
2018-12-29T12:50:00.878Z,90.85
2018-12-29T12:55:06.094Z,91.10
2018-12-29T13:00:29.418Z,90.88
2018-12-29T13:05:54.761Z,91.45
2018-12-29T13:10:59.121Z,90.88
2018-12-29T13:16:22.499Z,90.84
2018-12-29T13:21:45.936Z,90.61
2018-12-29T13:27:09.272Z,90.93
2018-12-29T13:32:26.551Z,91.17
2018-12-29T13:37:31.083Z,91.37
2018-12-29T13:42:54.728Z,91.41
2018-12-29T13:47:59.436Z,91.82
2018-12-29T13:53:03.710Z,91.94
2018-12-29T13:58:08.118Z,91.95
2018-12-29T14:03:31.941Z,92.06
2018-12-29T14:08:55.384Z,91.95
2018-12-29T14:14:18.720Z,91.74
2018-12-29T14:19:22.974Z,91.50
2018-12-29T14:24:27.222Z,92.03
2018-12-29T14:29:33.274Z,91.36
2018-12-29T14:34:50.414Z,91.54
2018-12-29T14:39:54.867Z,91.58
2018-12-29T14:45:00.184Z,91.33
2018-12-29T14:50:05.040Z,91.33
2018-12-29T14:55:28.454Z,91.08
2018-12-29T15:00:32.874Z,90.79
2018-12-29T15:05:38.912Z,90.95
2018-12-29T15:10:43.246Z,90.73
2018-12-29T15:15:48.024Z,90.63
2018-12-29T15:21:13.073Z,90.17
2018-12-29T15:26:17.707Z,90.33
2018-12-29T15:31:22.278Z,89.96
2018-12-29T15:36:26.725Z,89.88
2018-12-29T15:41:31.301Z,90.23
2018-12-29T15:46:37.295Z,89.52
2018-12-29T15:51:42.012Z,89.59
2018-12-29T15:57:05.396Z,89.66
2018-12-29T16:02:09.668Z,89.82
2018-12-29T16:07:14.102Z,90.18
2018-12-29T16:12:18.888Z,90.28
2018-12-29T16:17:23.301Z,90.63
2018-12-29T16:22:28.359Z,90.04
2018-12-29T16:27:32.899Z,90.08
2018-12-29T16:32:37.516Z,90.33
2018-12-29T16:37:41.960Z,90.48
2018-12-29T16:43:05.415Z,90.62
2018-12-29T16:48:09.851Z,90.67
2018-12-29T16:53:14.602Z,90.68
2018-12-29T16:58:18.993Z,91.05
2018-12-29T17:03:42.647Z,91.12
2018-12-29T17:08:46.912Z,91.36
2018-12-29T17:13:51.143Z,92.30
2018-12-29T17:19:15.057Z,93.08
2018-12-29T17:24:39.603Z,93.91
2018-12-29T17:29:45.825Z,94.38
2018-12-29T17:34:50.657Z,95.03
2018-12-29T17:39:55.188Z,95.36
2018-12-29T17:44:59.995Z,95.10
2018-12-29T17:50:23.703Z,94.82
2018-12-29T17:55:47.265Z,95.02
2018-12-29T18:01:10.666Z,95.27
2018-12-29T18:06:14.992Z,95.57
2018-12-29T18:11:38.413Z,95.51
2018-12-29T18:16:42.784Z,95.69
2018-12-29T18:21:48.778Z,95.63
2018-12-29T18:26:53.269Z,95.91
2018-12-29T18:32:16.592Z,95.78
2018-12-29T18:37:39.916Z,95.98
2018-12-29T18:42:44.398Z,96.31
2018-12-29T18:47:48.631Z,96.30
2018-12-29T18:53:12.220Z,96.35
2018-12-29T18:58:16.663Z,96.47
2018-12-29T19:03:39.986Z,96.35
2018-12-29T19:09:04.234Z,96.32
2018-12-29T19:14:09.051Z,96.14
2018-12-29T19:19:13.285Z,95.72
2018-12-29T19:24:17.840Z,95.75
2018-12-29T19:29:22.116Z,95.72
2018-12-29T19:34:26.679Z,95.67
2018-12-29T19:39:31.270Z,95.56
2018-12-29T19:44:35.855Z,95.45
2018-12-29T19:49:40.332Z,95.32
2018-12-29T19:54:44.677Z,95.08
2018-12-29T20:00:09.522Z,94.94
2018-12-29T20:05:14.032Z,94.83
2018-12-29T20:10:37.395Z,94.58
2018-12-29T20:15:43.354Z,94.61
2018-12-29T20:20:47.772Z,94.54
2018-12-29T20:25:52.522Z,94.44
2018-12-29T20:30:57.091Z,94.76
2018-12-29T20:36:01.806Z,94.68
2018-12-29T20:41:06.133Z,94.85
2018-12-29T20:46:12.220Z,94.90
2018-12-29T20:51:16.544Z,94.74
2018-12-29T20:56:39.856Z,94.79
2018-12-29T21:02:04.004Z,94.82
2018-12-29T21:07:08.255Z,94.69
2018-12-29T21:12:12.614Z,94.69
2018-12-29T21:17:17.059Z,94.86
2018-12-29T21:22:21.933Z,95.16
2018-12-29T21:27:26.455Z,95.31
2018-12-29T21:32:30.786Z,95.61
2018-12-29T21:37:35.216Z,96.18
2018-12-29T21:42:39.629Z,96.12
2018-12-29T21:47:44.037Z,95.95
2018-12-29T21:52:48.277Z,95.77
2018-12-29T21:57:52.961Z,95.70
2018-12-29T22:02:57.498Z,95.82
2018-12-29T22:08:21.368Z,95.97
2018-12-29T22:13:25.827Z,95.66
2018-12-29T22:18:30.711Z,95.18
2018-12-29T22:23:34.992Z,94.92
2018-12-29T22:28:39.479Z,94.80
2018-12-29T22:34:02.898Z,94.88
2018-12-29T22:39:07.982Z,94.74
2018-12-29T22:44:12.677Z,94.34
2018-12-29T22:49:36.169Z,93.91
2018-12-29T22:54:40.692Z,93.02
2018-12-29T22:59:45.979Z,92.06
2018-12-29T23:04:50.762Z,91.81
2018-12-29T23:09:56.739Z,91.13
2018-12-29T23:15:01.159Z,91.06
2018-12-29T23:20:05.568Z,89.71
2018-12-29T23:25:11.553Z,89.51
2018-12-29T23:30:16.095Z,88.79
2018-12-29T23:35:20.636Z,88.34
2018-12-29T23:40:25.178Z,88.36
2018-12-29T23:45:29.510Z,88.78
2018-12-29T23:50:33.911Z,88.91
2018-12-29T23:55:38.347Z,88.45
